createdAt,value
2022-10-18T00:02:04.569Z,9.27
2022-10-18T00:04:31.206Z,9.60
2022-10-18T00:06:57.748Z,9.60
2022-10-18T00:09:24.973Z,9.27
2022-10-18T00:11:51.671Z,9.75
2022-10-18T00:14:18.222Z,10.43
2022-10-18T00:16:45.373Z,9.02
2022-10-18T00:19:11.868Z,8.95
2022-10-18T00:21:38.745Z,8.90
2022-10-18T00:24:05.706Z,9.35
2022-10-18T00:26:32.401Z,9.85
2022-10-18T00:29:01.195Z,10.02
2022-10-18T00:31:30.622Z,8.98
2022-10-18T00:34:03.417Z,9.25
2022-10-18T00:36:32.302Z,8.30
2022-10-18T00:38:58.980Z,9.25
2022-10-18T00:41:28.311Z,8.60
2022-10-18T00:43:56.787Z,8.18
2022-10-18T00:46:24.481Z,7.38
2022-10-18T00:48:52.610Z,7.75
2022-10-18T00:51:21.142Z,7.38
2022-10-18T00:53:49.057Z,7.65
2022-10-18T00:56:15.811Z,7.63
2022-10-18T00:58:43.137Z,7.65
2022-10-18T01:01:09.809Z,7.57
2022-10-18T01:03:37.270Z,8.55
2022-10-18T01:06:03.887Z,7.75
2022-10-18T01:08:42.253Z,8.48
2022-10-18T01:11:37.283Z,8.00
2022-10-18T01:14:29.763Z,7.80
2022-10-18T01:17:08.673Z,8.23
2022-10-18T01:19:44.642Z,8.32
2022-10-18T01:22:22.436Z,7.70
2022-10-18T01:25:00.425Z,8.27
2022-10-18T01:27:42.402Z,7.90
2022-10-18T01:30:33.892Z,9.25
2022-10-18T01:33:09.438Z,8.52
2022-10-18T01:35:40.943Z,9.35
2022-10-18T01:38:13.948Z,8.52
2022-10-18T01:40:42.166Z,9.40
2022-10-18T01:43:10.441Z,9.70
2022-10-18T01:48:04.148Z,8.73
2022-10-18T01:50:33.151Z,8.98
2022-10-18T01:53:00.443Z,8.95
2022-10-18T01:55:31.135Z,9.75
2022-10-18T01:58:12.569Z,8.95
2022-10-18T02:00:42.328Z,9.63
2022-10-18T02:03:22.140Z,9.65
2022-10-18T02:05:56.540Z,8.55
2022-10-18T02:11:02.625Z,9.15
2022-10-18T02:13:38.787Z,9.18
2022-10-18T02:16:11.469Z,9.43
2022-10-18T02:18:44.717Z,8.38
2022-10-18T02:21:15.785Z,8.30
2022-10-18T02:23:44.997Z,7.30
2022-10-18T02:26:12.293Z,7.25
2022-10-18T02:28:39.362Z,7.85
2022-10-18T02:31:19.564Z,7.85
2022-10-18T02:34:07.736Z,7.85
2022-10-18T02:36:40.613Z,7.53
2022-10-18T02:39:16.687Z,8.05
2022-10-18T02:41:43.594Z,7.88
2022-10-18T02:44:11.245Z,8.07
2022-10-18T02:46:39.431Z,7.93
2022-10-18T02:49:05.934Z,7.82
2022-10-18T02:51:32.411Z,8.07
2022-10-18T02:54:01.695Z,8.07
2022-10-18T02:56:28.167Z,8.60
2022-10-18T02:58:54.658Z,8.32
2022-10-18T03:01:21.304Z,8.20
2022-10-18T03:03:47.907Z,8.93
2022-10-18T03:06:14.337Z,8.50
2022-10-18T03:08:40.903Z,9.05
2022-10-18T03:11:07.463Z,8.90
2022-10-18T03:13:34.353Z,7.95
2022-10-18T03:16:01.274Z,8.27
2022-10-18T03:18:27.829Z,8.50
2022-10-18T03:20:54.317Z,8.13
2022-10-18T03:23:20.779Z,8.80
2022-10-18T03:25:47.422Z,8.43
2022-10-18T03:28:13.942Z,8.18
2022-10-18T03:30:40.397Z,8.38
2022-10-18T03:33:07.095Z,8.13
2022-10-18T03:35:33.540Z,8.75
2022-10-18T03:37:59.974Z,7.90
2022-10-18T03:40:26.468Z,8.18
2022-10-18T03:42:52.971Z,9.15
2022-10-18T03:45:19.471Z,8.07
2022-10-18T03:47:46.199Z,8.38
2022-10-18T03:50:12.656Z,7.97
2022-10-18T03:52:39.110Z,7.70
2022-10-18T03:55:06.198Z,8.02
2022-10-18T03:57:32.680Z,8.23
2022-10-18T03:59:59.134Z,8.40
2022-10-18T04:02:26.006Z,7.65
2022-10-18T04:04:52.712Z,7.93
2022-10-18T04:07:19.217Z,7.63
2022-10-18T04:09:45.666Z,7.32
2022-10-18T04:12:12.250Z,7.90
2022-10-18T04:14:38.689Z,7.18
2022-10-18T04:17:05.166Z,7.60
2022-10-18T04:19:31.614Z,7.07
2022-10-18T04:21:58.032Z,6.15
2022-10-18T04:24:24.537Z,5.50
2022-10-18T04:26:51.398Z,5.35
2022-10-18T04:29:17.955Z,5.20
2022-10-18T04:31:44.523Z,5.10
2022-10-18T04:34:11.023Z,6.50
2022-10-18T04:36:37.569Z,5.43
2022-10-18T04:39:04.207Z,5.60
2022-10-18T04:41:30.711Z,5.22
2022-10-18T04:43:57.201Z,5.82
2022-10-18T04:46:23.607Z,5.75
2022-10-18T04:48:50.014Z,4.95
2022-10-18T04:51:16.505Z,4.90
2022-10-18T04:53:42.914Z,4.90
2022-10-18T04:56:09.414Z,4.65
2022-10-18T04:58:35.846Z,4.30
2022-10-18T05:01:08.048Z,4.55
2022-10-18T05:03:35.021Z,4.90
2022-10-18T05:06:02.756Z,4.60
2022-10-18T05:08:30.648Z,4.68
2022-10-18T05:10:57.273Z,5.25
2022-10-18T05:13:23.866Z,5.07
2022-10-18T05:15:50.423Z,5.13
2022-10-18T05:18:16.907Z,5.45
2022-10-18T05:20:43.687Z,6.22
2022-10-18T05:23:10.870Z,5.40
2022-10-18T05:25:41.912Z,5.28
2022-10-18T05:28:34.488Z,5.40
2022-10-18T05:30:55.878Z,4.90
2022-10-18T05:33:22.361Z,4.75
2022-10-18T05:35:48.854Z,4.57
2022-10-18T05:38:15.315Z,5.53
2022-10-18T05:40:41.749Z,6.07
2022-10-18T05:43:08.250Z,6.50
2022-10-18T05:45:34.719Z,6.20
2022-10-18T05:48:01.209Z,6.38
2022-10-18T05:50:27.899Z,5.93
2022-10-18T05:53:06.845Z,5.68
2022-10-18T05:55:44.514Z,5.80
2022-10-18T05:58:11.021Z,6.10
2022-10-18T06:00:38.616Z,6.30
2022-10-18T06:03:05.042Z,6.93
2022-10-18T06:05:31.515Z,4.80
2022-10-18T06:07:58.145Z,4.78
2022-10-18T06:10:25.015Z,5.00
2022-10-18T06:12:51.574Z,4.88
2022-10-18T06:15:18.237Z,5.05
2022-10-18T06:17:44.794Z,4.85
2022-10-18T06:20:11.427Z,5.22
2022-10-18T06:22:37.910Z,6.30
2022-10-18T06:25:04.529Z,5.63
2022-10-18T06:27:31.988Z,5.25
2022-10-18T06:29:58.671Z,6.15
2022-10-18T06:32:25.371Z,6.65
2022-10-18T06:34:51.916Z,5.90
2022-10-18T06:37:18.331Z,6.13
2022-10-18T06:39:44.787Z,5.90
2022-10-18T06:42:11.391Z,6.05
2022-10-18T06:44:38.207Z,5.60
2022-10-18T06:47:04.696Z,5.63
2022-10-18T06:49:31.210Z,5.97
2022-10-18T06:51:57.686Z,5.57
2022-10-18T06:54:24.128Z,6.47
2022-10-18T06:56:50.573Z,5.93
2022-10-18T06:59:18.136Z,6.38
2022-10-18T07:01:44.832Z,6.25
2022-10-18T07:04:11.396Z,5.47
2022-10-18T07:06:37.906Z,5.70
2022-10-18T07:09:04.697Z,5.72
2022-10-18T07:11:31.337Z,6.10
2022-10-18T07:14:03.268Z,6.40
2022-10-18T07:16:30.488Z,6.70
2022-10-18T07:18:57.217Z,6.70
2022-10-18T07:21:25.136Z,5.68
2022-10-18T07:23:52.602Z,6.20
2022-10-18T07:26:29.199Z,5.78
2022-10-18T07:29:08.087Z,5.60
2022-10-18T07:31:35.224Z,5.40
2022-10-18T07:34:07.676Z,6.10
2022-10-18T07:36:34.514Z,7.90
2022-10-18T07:39:00.993Z,8.38
2022-10-18T07:41:27.465Z,6.97
2022-10-18T07:43:54.040Z,6.63
2022-10-18T07:46:22.406Z,6.80
2022-10-18T07:48:49.451Z,7.30
2022-10-18T07:51:16.023Z,6.22
2022-10-18T07:53:42.527Z,5.95
2022-10-18T07:56:16.315Z,6.28
2022-10-18T07:58:44.140Z,5.43
2022-10-18T08:01:10.705Z,6.80
2022-10-18T08:03:38.380Z,5.72
2022-10-18T08:06:09.086Z,6.18
2022-10-18T08:08:37.037Z,5.70
2022-10-18T08:11:12.946Z,6.32
2022-10-18T08:13:39.466Z,6.60
2022-10-18T08:16:11.536Z,5.90
2022-10-18T08:18:39.101Z,7.53
2022-10-18T08:21:08.454Z,5.75
2022-10-18T08:23:35.597Z,7.10
2022-10-18T08:26:03.832Z,5.18
2022-10-18T08:30:57.106Z,5.32
2022-10-18T08:33:23.648Z,4.90
2022-10-18T08:35:59.757Z,5.32
2022-10-18T08:38:26.494Z,5.28
2022-10-18T08:40:53.049Z,5.38
2022-10-18T08:43:30.305Z,6.05
2022-10-18T08:45:57.248Z,5.47
2022-10-18T08:48:32.985Z,5.55
2022-10-18T08:51:00.584Z,5.18
2022-10-18T08:53:49.229Z,5.30
2022-10-18T08:56:21.204Z,4.82
2022-10-18T08:58:47.737Z,5.88
2022-10-18T09:01:49.925Z,5.80
2022-10-18T09:04:25.734Z,5.45
2022-10-18T09:07:16.074Z,5.80
2022-10-18T09:10:01.396Z,5.60
2022-10-18T09:13:01.906Z,5.82
2022-10-18T09:15:55.014Z,5.63
2022-10-18T09:18:28.814Z,5.40
2022-10-18T09:21:12.456Z,5.55
2022-10-18T09:23:50.475Z,5.97
2022-10-18T09:26:18.716Z,6.07
2022-10-18T09:31:25.291Z,5.70
2022-10-18T09:34:05.275Z,5.97
2022-10-18T09:36:37.121Z,5.72
2022-10-18T09:39:16.621Z,5.72
2022-10-18T09:41:57.737Z,6.20
2022-10-18T09:44:28.373Z,6.50
2022-10-18T09:47:04.316Z,6.28
2022-10-18T09:49:36.719Z,5.45
2022-10-18T09:52:09.173Z,5.55
2022-10-18T09:54:44.918Z,5.20
2022-10-18T09:57:31.366Z,5.30
2022-10-18T10:00:00.347Z,5.15
2022-10-18T10:02:27.158Z,4.45
2022-10-18T10:04:57.068Z,4.40
2022-10-18T10:07:32.567Z,4.28
2022-10-18T10:10:28.922Z,3.80
2022-10-18T10:13:09.452Z,3.45
2022-10-18T10:15:40.490Z,2.92
2022-10-18T10:18:24.858Z,1.58
2022-10-18T10:20:58.508Z,1.23
2022-10-18T10:23:26.915Z,1.10
2022-10-18T10:26:04.996Z,1.05
2022-10-18T10:28:36.624Z,0.93
2022-10-18T10:31:30.748Z,1.30
2022-10-18T10:34:19.777Z,0.90
2022-10-18T10:36:49.103Z,0.80
2022-10-18T10:39:19.126Z,0.85
2022-10-18T10:41:51.200Z,0.93
2022-10-18T10:44:20.377Z,1.15
2022-10-18T10:46:49.489Z,0.95
2022-10-18T10:49:39.580Z,0.90
2022-10-18T10:52:08.864Z,0.80
2022-10-18T10:54:50.394Z,0.70
2022-10-18T10:57:26.207Z,0.70
2022-10-18T10:59:56.285Z,0.63
2022-10-18T11:02:26.046Z,0.90
2022-10-18T11:04:54.944Z,1.13
2022-10-18T11:07:36.662Z,0.85
2022-10-18T11:10:11.442Z,0.80
2022-10-18T11:12:44.076Z,0.80
2022-10-18T11:15:11.864Z,0.80
2022-10-18T11:18:10.846Z,1.10
2022-10-18T11:20:53.004Z,1.00
2022-10-18T11:23:19.880Z,0.98
2022-10-18T11:26:04.653Z,0.77
2022-10-18T11:28:43.424Z,0.75
2022-10-18T11:31:19.621Z,0.90
2022-10-18T11:34:22.939Z,1.42
2022-10-18T11:37:29.132Z,1.13
2022-10-18T11:40:14.854Z,0.90
2022-10-18T11:42:57.837Z,1.00
2022-10-18T11:45:39.620Z,0.80
2022-10-18T11:48:33.265Z,0.80
2022-10-18T11:51:08.818Z,1.00
2022-10-18T11:53:46.170Z,0.80
2022-10-18T11:56:25.579Z,0.75
2022-10-18T11:59:16.987Z,0.70
2022-10-18T12:02:11.010Z,0.60
2022-10-18T12:04:53.203Z,0.80
2022-10-18T12:07:38.469Z,0.90
2022-10-18T12:10:08.534Z,1.10
2022-10-18T12:12:45.956Z,0.73
2022-10-18T12:15:22.247Z,1.20
2022-10-18T12:17:53.911Z,0.77
2022-10-18T12:20:30.022Z,0.77
2022-10-18T12:23:02.784Z,0.85
2022-10-18T12:25:33.916Z,1.23
2022-10-18T12:28:16.421Z,0.80
2022-10-18T12:30:51.947Z,0.90
2022-10-18T12:33:28.338Z,0.80
2022-10-18T12:36:20.606Z,0.70
2022-10-18T12:38:58.643Z,0.80
2022-10-18T12:41:33.515Z,0.80
2022-10-18T12:44:05.181Z,0.90
2022-10-18T12:46:46.828Z,0.63
2022-10-18T12:49:17.523Z,0.80
2022-10-18T12:51:52.662Z,0.60
2022-10-18T12:54:25.650Z,0.70
2022-10-18T12:56:52.179Z,0.70
2022-10-18T12:59:19.637Z,1.10
2022-10-18T13:01:54.911Z,0.70
2022-10-18T13:04:27.754Z,0.70
2022-10-18T13:07:18.944Z,1.25
2022-10-18T13:10:27.501Z,0.77
2022-10-18T13:13:38.831Z,0.70
2022-10-18T13:16:37.372Z,0.60
2022-10-18T13:19:19.330Z,0.80
2022-10-18T13:21:48.602Z,0.60
2022-10-18T13:24:42.978Z,0.70
2022-10-18T13:27:37.255Z,1.02
2022-10-18T13:30:32.308Z,0.82
2022-10-18T13:33:34.720Z,0.60
2022-10-18T13:36:25.301Z,0.88
2022-10-18T13:39:04.040Z,0.70
2022-10-18T13:41:47.182Z,0.85
2022-10-18T13:44:33.338Z,1.00
2022-10-18T13:46:59.700Z,0.90
2022-10-18T13:49:38.388Z,1.02
2022-10-18T13:52:23.636Z,1.05
2022-10-18T13:55:06.026Z,0.70
2022-10-18T13:57:55.377Z,0.70
2022-10-18T14:00:42.307Z,0.55
2022-10-18T14:03:55.116Z,0.57
2022-10-18T14:06:42.756Z,0.77
2022-10-18T14:12:28.934Z,0.60
2022-10-18T14:15:03.535Z,0.70
2022-10-18T14:17:36.763Z,0.80
2022-10-18T14:20:13.613Z,0.70
2022-10-18T14:22:57.429Z,1.00
2022-10-18T14:25:35.855Z,1.20
2022-10-18T14:28:36.388Z,1.13
2022-10-18T14:31:18.552Z,1.23
2022-10-18T14:33:48.112Z,1.20
2022-10-18T14:36:22.495Z,1.02
2022-10-18T14:38:55.133Z,1.05
2022-10-18T14:41:27.715Z,1.15
2022-10-18T14:44:12.337Z,0.90
2022-10-18T14:46:44.186Z,0.95
2022-10-18T14:49:11.941Z,1.02
2022-10-18T14:51:40.805Z,0.90
2022-10-18T14:56:45.537Z,1.10
2022-10-18T14:59:25.779Z,1.35
2022-10-18T15:04:35.212Z,0.98
2022-10-18T15:07:05.447Z,0.85
2022-10-18T15:09:34.309Z,1.20
2022-10-18T15:12:03.359Z,1.00
2022-10-18T15:14:30.728Z,1.88
2022-10-18T15:17:04.737Z,0.90
2022-10-18T15:19:34.517Z,1.00
2022-10-18T15:25:16.202Z,0.90
2022-10-18T15:28:02.096Z,0.80
2022-10-18T15:30:37.831Z,0.70
2022-10-18T15:33:09.710Z,0.70
2022-10-18T15:35:40.496Z,0.90
2022-10-18T15:38:28.422Z,0.80
2022-10-18T15:40:55.515Z,0.98
2022-10-18T15:43:28.170Z,0.90
2022-10-18T15:46:03.485Z,1.10
2022-10-18T15:48:35.591Z,1.00
2022-10-18T15:51:47.580Z,1.00
2022-10-18T15:54:29.698Z,1.08
2022-10-18T15:56:56.801Z,0.75
2022-10-18T15:59:28.926Z,0.90
2022-10-18T16:01:55.456Z,1.25
2022-10-18T16:04:31.229Z,1.20
2022-10-18T16:06:58.752Z,0.93
2022-10-18T16:09:27.759Z,1.20
2022-10-18T16:11:57.180Z,2.35
2022-10-18T16:14:25.371Z,2.30
2022-10-18T16:16:55.187Z,1.95
2022-10-18T16:19:22.822Z,1.10
2022-10-18T16:21:50.972Z,0.90
2022-10-18T16:24:17.732Z,1.60
2022-10-18T16:26:45.035Z,1.70
2022-10-18T16:29:14.961Z,1.30
2022-10-18T16:31:42.139Z,2.20
2022-10-18T16:34:11.155Z,1.40
2022-10-18T16:36:37.750Z,1.40
2022-10-18T16:39:09.267Z,1.35
2022-10-18T16:41:35.763Z,1.20
2022-10-18T16:44:02.193Z,1.40
2022-10-18T16:46:31.813Z,1.20
2022-10-18T16:48:58.961Z,1.40
2022-10-18T16:51:26.002Z,1.20
2022-10-18T16:53:55.785Z,1.50
2022-10-18T16:56:26.677Z,1.70
2022-10-18T16:58:53.500Z,1.70
2022-10-18T17:01:22.068Z,2.80
2022-10-18T17:03:52.259Z,2.40
2022-10-18T17:06:24.527Z,1.67
2022-10-18T17:08:52.099Z,1.80
2022-10-18T17:11:20.134Z,2.10
2022-10-18T17:13:46.943Z,2.00
2022-10-18T17:16:23.292Z,1.60
2022-10-18T17:18:50.329Z,2.15
2022-10-18T17:21:16.818Z,2.30
2022-10-18T17:23:43.219Z,2.15
2022-10-18T17:26:27.960Z,2.00
2022-10-18T17:28:59.492Z,1.92
2022-10-18T17:31:26.101Z,2.17
2022-10-18T17:33:54.704Z,2.50
2022-10-18T17:36:21.948Z,2.63
2022-10-18T17:38:52.917Z,2.63
2022-10-18T17:41:19.879Z,2.80
2022-10-18T17:43:47.977Z,3.83
2022-10-18T17:46:15.046Z,3.50
2022-10-18T17:48:42.458Z,3.63
2022-10-18T17:51:14.635Z,3.13
2022-10-18T17:53:41.508Z,3.22
2022-10-18T17:56:08.367Z,4.30
2022-10-18T17:58:35.185Z,4.85
2022-10-18T18:01:09.706Z,4.75
2022-10-18T18:06:15.143Z,4.10
2022-10-18T18:08:41.594Z,4.93
2022-10-18T18:11:08.120Z,5.10
2022-10-18T18:13:34.652Z,4.88
2022-10-18T18:16:16.944Z,4.65
2022-10-18T18:18:44.185Z,4.78
2022-10-18T18:21:11.378Z,4.20
2022-10-18T18:23:37.873Z,4.60
2022-10-18T18:26:05.848Z,4.57
2022-10-18T18:28:32.472Z,4.22
2022-10-18T18:30:59.208Z,4.65
2022-10-18T18:33:25.718Z,4.38
2022-10-18T18:35:59.741Z,4.30
2022-10-18T18:38:26.753Z,4.10
2022-10-18T18:41:11.607Z,3.88
2022-10-18T18:43:39.679Z,4.03
2022-10-18T18:46:06.909Z,3.75
2022-10-18T18:48:35.001Z,3.90
2022-10-18T18:51:05.894Z,3.58
2022-10-18T18:53:32.693Z,3.72
2022-10-18T18:56:05.070Z,3.70
2022-10-18T18:58:32.662Z,4.18
2022-10-18T19:00:59.242Z,4.35
2022-10-18T19:03:25.906Z,4.05
2022-10-18T19:06:02.574Z,4.80
2022-10-18T19:08:29.095Z,4.40
2022-10-18T19:10:55.538Z,4.88
2022-10-18T19:13:22.004Z,5.80
2022-10-18T19:15:48.567Z,5.57
2022-10-18T19:18:15.065Z,5.97
2022-10-18T19:20:41.573Z,5.97
2022-10-18T19:23:08.040Z,6.40
2022-10-18T19:25:34.527Z,6.50
2022-10-18T19:28:01.009Z,6.90
2022-10-18T19:30:27.467Z,7.07
2022-10-18T19:33:01.122Z,7.60
2022-10-18T19:35:29.953Z,7.38
2022-10-18T19:37:56.395Z,8.23
2022-10-18T19:40:22.863Z,7.70
2022-10-18T19:42:49.422Z,8.55
2022-10-18T19:45:15.987Z,8.13
2022-10-18T19:47:42.724Z,8.00
2022-10-18T19:50:09.293Z,7.97
2022-10-18T19:52:36.164Z,8.80
2022-10-18T19:55:02.875Z,9.32
2022-10-18T19:57:29.273Z,8.93
2022-10-18T19:59:56.705Z,10.15
2022-10-18T20:02:23.500Z,9.30
2022-10-18T20:04:50.014Z,9.43
2022-10-18T20:07:16.473Z,8.52
2022-10-18T20:09:42.937Z,9.35
2022-10-18T20:12:09.425Z,9.05
2022-10-18T20:14:35.872Z,8.77
2022-10-18T20:17:02.335Z,9.70
2022-10-18T20:19:28.737Z,9.15
2022-10-18T20:21:55.727Z,9.85
2022-10-18T20:24:22.175Z,9.80
2022-10-18T20:26:48.658Z,9.98
2022-10-18T20:29:15.247Z,10.43
2022-10-18T20:31:41.783Z,11.25
2022-10-18T20:34:11.711Z,12.02
2022-10-18T20:36:38.281Z,10.63
2022-10-18T20:39:05.953Z,10.40
2022-10-18T20:41:35.137Z,12.90
2022-10-18T20:44:08.392Z,10.98
2022-10-18T20:46:37.083Z,13.23
2022-10-18T20:49:05.400Z,13.13
2022-10-18T20:51:33.697Z,13.05
2022-10-18T20:54:01.819Z,10.05
2022-10-18T20:56:28.350Z,7.75
2022-10-18T20:58:57.083Z,3.90
2022-10-18T21:01:32.406Z,2.20
2022-10-18T21:04:02.420Z,1.67
2022-10-18T21:06:31.792Z,1.77
2022-10-18T21:09:00.793Z,2.03
2022-10-18T21:11:30.829Z,2.10
2022-10-18T21:14:00.267Z,2.05
2022-10-18T21:16:27.134Z,2.00
2022-10-18T21:18:53.742Z,2.60
2022-10-18T21:21:23.214Z,1.92
2022-10-18T21:23:50.868Z,2.45
2022-10-18T21:26:26.858Z,2.05
2022-10-18T21:28:57.743Z,1.90
2022-10-18T21:31:30.426Z,2.10
2022-10-18T21:33:59.728Z,2.47
2022-10-18T21:36:29.832Z,2.20
2022-10-18T21:38:56.358Z,2.80
2022-10-18T21:41:23.398Z,3.08
2022-10-18T21:43:52.130Z,2.60
2022-10-18T21:46:20.946Z,3.35
2022-10-18T21:48:50.970Z,3.63
2022-10-18T21:51:19.591Z,3.28
2022-10-18T21:53:48.386Z,3.40
2022-10-18T21:56:18.050Z,3.70
2022-10-18T21:58:45.319Z,3.78
2022-10-18T22:01:32.305Z,4.15
2022-10-18T22:04:01.027Z,4.00
2022-10-18T22:08:59.291Z,4.00
2022-10-18T22:11:31.600Z,4.43
2022-10-18T22:13:58.177Z,4.00
2022-10-18T22:16:25.505Z,3.80
2022-10-18T22:18:53.012Z,3.72
2022-10-18T22:21:20.505Z,2.60
2022-10-18T22:23:52.359Z,2.85
2022-10-18T22:26:25.421Z,2.90
2022-10-18T22:29:01.258Z,3.40
2022-10-18T22:31:31.457Z,3.22
2022-10-18T22:34:04.548Z,3.60
2022-10-18T22:36:31.731Z,3.83
2022-10-18T22:38:58.153Z,3.90
2022-10-18T22:41:25.427Z,3.90
2022-10-18T22:43:53.022Z,3.90
2022-10-18T22:46:20.216Z,4.60
2022-10-18T22:48:46.864Z,4.35
2022-10-18T22:51:13.769Z,4.53
2022-10-18T22:53:40.677Z,5.03
2022-10-18T22:56:09.791Z,4.25
2022-10-18T22:58:36.272Z,4.20
2022-10-18T23:01:08.758Z,3.85
2022-10-18T23:03:35.841Z,4.18
2022-10-18T23:06:03.482Z,3.88
2022-10-18T23:08:30.154Z,3.75
2022-10-18T23:10:59.494Z,3.83
2022-10-18T23:13:27.680Z,4.43
2022-10-18T23:16:04.373Z,4.57
2022-10-18T23:18:32.368Z,4.55
2022-10-18T23:21:08.026Z,4.68
2022-10-18T23:23:36.050Z,4.75
2022-10-18T23:26:07.592Z,5.20
2022-10-18T23:28:39.137Z,5.38
2022-10-18T23:31:06.876Z,4.85
2022-10-18T23:33:33.285Z,3.80
2022-10-18T23:35:59.825Z,3.60
2022-10-18T23:38:26.252Z,3.47
2022-10-18T23:40:52.644Z,3.70
2022-10-18T23:43:19.055Z,3.72
2022-10-18T23:48:12.982Z,3.75
2022-10-18T23:50:39.391Z,3.40
2022-10-18T23:53:05.944Z,3.70
2022-10-18T23:55:32.413Z,3.50
2022-10-18T23:57:58.875Z,3.58
